createdAt,value
2023-01-27T00:00:54.523Z,1.72
2023-01-27T00:03:22.971Z,1.66
2023-01-27T00:05:51.229Z,1.61
2023-01-27T00:08:19.885Z,1.62
2023-01-27T00:11:07.920Z,1.54
2023-01-27T00:13:34.939Z,1.49
2023-01-27T00:16:04.475Z,1.45
2023-01-27T00:18:32.594Z,1.22
2023-01-27T00:21:18.165Z,1.29
2023-01-27T00:24:03.579Z,1.33
2023-01-27T00:26:31.648Z,1.46
2023-01-27T00:28:59.739Z,1.50
2023-01-27T00:31:46.686Z,1.61
2023-01-27T00:34:14.767Z,1.57
2023-01-27T00:36:43.556Z,1.48
2023-01-27T00:39:13.810Z,1.57
2023-01-27T00:41:44.803Z,1.49
2023-01-27T00:44:13.670Z,1.50
2023-01-27T00:46:44.045Z,1.43
2023-01-27T00:49:13.448Z,1.48
2023-01-27T00:51:41.736Z,1.50
2023-01-27T00:54:10.071Z,1.43
2023-01-27T00:56:39.507Z,1.44
2023-01-27T00:59:07.859Z,1.40
2023-01-27T01:01:36.170Z,1.57
2023-01-27T01:04:05.804Z,1.62
2023-01-27T01:06:33.861Z,1.64
2023-01-27T01:09:01.896Z,1.67
2023-01-27T01:11:29.991Z,1.69
2023-01-27T01:13:58.200Z,1.71
2023-01-27T01:16:27.089Z,1.64
2023-01-27T01:18:55.397Z,1.69
2023-01-27T01:21:24.913Z,1.71
2023-01-27T01:23:52.951Z,1.59
2023-01-27T01:26:21.020Z,1.42
2023-01-27T01:28:49.122Z,1.37
2023-01-27T01:31:19.071Z,1.49
2023-01-27T01:33:48.289Z,1.52
2023-01-27T01:36:18.383Z,1.53
2023-01-27T01:38:48.532Z,1.63
2023-01-27T01:41:19.980Z,1.59
2023-01-27T01:43:48.539Z,1.57
2023-01-27T01:46:17.183Z,1.58
2023-01-27T01:48:48.647Z,1.43
2023-01-27T01:51:21.339Z,1.27
2023-01-27T01:53:55.731Z,1.38
2023-01-27T01:56:27.055Z,1.36
2023-01-27T01:58:58.935Z,1.38
2023-01-27T02:01:27.006Z,1.23
2023-01-27T02:03:59.465Z,1.23
2023-01-27T02:06:27.709Z,1.30
2023-01-27T02:09:00.749Z,1.40
2023-01-27T02:11:30.206Z,1.45
2023-01-27T02:14:01.911Z,1.31
2023-01-27T02:16:31.208Z,1.32
2023-01-27T02:18:59.641Z,1.45
2023-01-27T02:21:27.714Z,1.50
2023-01-27T02:24:02.035Z,1.59
2023-01-27T02:26:34.687Z,1.58
2023-01-27T02:29:07.392Z,1.42
2023-01-27T02:31:35.974Z,1.27
2023-01-27T02:34:08.312Z,1.31
2023-01-27T02:36:40.815Z,1.41
2023-01-27T02:39:11.648Z,1.46
2023-01-27T02:41:44.461Z,1.52
2023-01-27T02:44:13.319Z,1.50
2023-01-27T02:46:41.412Z,1.55
2023-01-27T02:49:09.520Z,1.47
2023-01-27T02:51:37.779Z,1.31
2023-01-27T02:54:06.986Z,1.29
2023-01-27T02:56:35.266Z,1.31
2023-01-27T02:59:05.002Z,1.23
2023-01-27T03:01:38.025Z,1.28
2023-01-27T03:04:06.257Z,1.19
2023-01-27T03:06:35.457Z,1.30
2023-01-27T03:09:03.506Z,1.37
2023-01-27T03:11:49.178Z,1.50
2023-01-27T03:14:18.694Z,1.53
2023-01-27T03:17:06.592Z,1.52
2023-01-27T03:19:34.737Z,1.55
2023-01-27T03:22:04.682Z,1.55
2023-01-27T03:24:35.169Z,1.65
2023-01-27T03:27:07.017Z,1.65
2023-01-27T03:29:56.416Z,1.52
2023-01-27T03:32:25.759Z,1.53
2023-01-27T03:35:14.539Z,1.55
2023-01-27T03:38:02.198Z,1.57
2023-01-27T03:40:47.963Z,1.60
2023-01-27T03:43:33.552Z,1.61
2023-01-27T03:46:22.392Z,1.62
2023-01-27T03:48:52.461Z,1.61
2023-01-27T03:51:21.827Z,1.53
2023-01-27T03:53:50.206Z,1.49
2023-01-27T03:56:19.915Z,1.44
2023-01-27T03:58:49.762Z,1.47
2023-01-27T04:01:22.345Z,1.36
2023-01-27T04:04:09.410Z,1.35
2023-01-27T04:07:02.922Z,1.36
2023-01-27T04:09:33.070Z,1.42
2023-01-27T04:12:02.220Z,1.26
2023-01-27T04:14:32.112Z,1.22
2023-01-27T04:17:04.008Z,1.28
2023-01-27T04:19:32.469Z,1.26
2023-01-27T04:22:02.173Z,1.36
2023-01-27T04:24:30.491Z,1.38
2023-01-27T04:27:00.621Z,1.39
2023-01-27T04:29:30.382Z,1.36
2023-01-27T04:31:59.072Z,1.41
2023-01-27T04:34:29.175Z,1.42
2023-01-27T04:36:57.792Z,1.39
2023-01-27T04:39:26.549Z,1.32
2023-01-27T04:41:54.492Z,1.29
2023-01-27T04:44:22.455Z,1.29
2023-01-27T04:46:51.281Z,1.31
2023-01-27T04:49:19.688Z,1.28
2023-01-27T04:51:49.400Z,1.26
2023-01-27T04:54:17.797Z,1.30
2023-01-27T04:56:56.940Z,1.13
2023-01-27T04:59:25.159Z,1.03
2023-01-27T05:01:53.201Z,0.95
2023-01-27T05:04:21.563Z,0.98
2023-01-27T05:06:51.092Z,0.91
2023-01-27T05:09:19.169Z,0.90
2023-01-27T05:11:47.165Z,0.79
2023-01-27T05:14:15.244Z,0.82
2023-01-27T05:16:43.376Z,0.94
2023-01-27T05:19:11.381Z,1.05
2023-01-27T05:21:39.369Z,1.18
2023-01-27T05:24:09.036Z,0.99
2023-01-27T05:26:37.093Z,0.92
2023-01-27T05:29:05.074Z,0.98
2023-01-27T05:31:33.386Z,0.94
2023-01-27T05:34:02.903Z,0.88
2023-01-27T05:36:31.603Z,0.85
2023-01-27T05:39:00.614Z,0.92
2023-01-27T05:41:32.163Z,0.93
2023-01-27T05:44:00.285Z,1.07
2023-01-27T05:46:30.330Z,1.12
2023-01-27T05:49:01.586Z,1.19
2023-01-27T05:51:32.287Z,1.06
2023-01-27T05:54:00.660Z,1.09
2023-01-27T05:56:30.279Z,1.13
2023-01-27T05:58:59.560Z,1.08
2023-01-27T06:01:29.370Z,1.12
2023-01-27T06:03:57.717Z,1.10
2023-01-27T06:06:27.287Z,0.90
2023-01-27T06:08:55.455Z,0.76
2023-01-27T06:11:24.350Z,0.96
2023-01-27T06:13:54.957Z,1.08
2023-01-27T06:16:24.446Z,1.19
2023-01-27T06:18:52.770Z,1.26
2023-01-27T06:21:21.263Z,1.12
2023-01-27T06:23:49.793Z,1.09
2023-01-27T06:26:20.518Z,1.21
2023-01-27T06:28:48.868Z,1.26
2023-01-27T06:31:22.140Z,1.17
2023-01-27T06:33:50.647Z,1.20
2023-01-27T06:36:19.924Z,1.16
2023-01-27T06:38:49.084Z,1.14
2023-01-27T06:41:17.163Z,1.25
2023-01-27T06:43:45.145Z,1.46
2023-01-27T06:46:13.421Z,1.59
2023-01-27T06:48:42.998Z,1.53
2023-01-27T06:51:11.242Z,1.58
2023-01-27T06:53:39.241Z,1.59
2023-01-27T06:56:07.828Z,1.55
2023-01-27T06:58:35.948Z,1.47
2023-01-27T07:01:06.532Z,1.49
2023-01-27T07:03:37.625Z,1.56
2023-01-27T07:06:07.818Z,1.51
2023-01-27T07:08:35.871Z,1.52
2023-01-27T07:11:05.602Z,1.49
2023-01-27T07:13:33.645Z,1.57
2023-01-27T07:16:01.645Z,1.50
2023-01-27T07:18:29.973Z,1.36
2023-01-27T07:20:57.955Z,1.37
2023-01-27T07:23:27.293Z,1.41
2023-01-27T07:25:55.500Z,1.36
2023-01-27T07:28:23.554Z,1.41
2023-01-27T07:30:51.672Z,1.35
2023-01-27T07:33:19.646Z,1.39
2023-01-27T07:35:50.439Z,1.48
2023-01-27T07:38:18.576Z,1.47
2023-01-27T07:40:47.991Z,1.43
2023-01-27T07:43:15.987Z,1.44
2023-01-27T07:45:48.858Z,1.37
2023-01-27T07:48:17.402Z,1.29
2023-01-27T07:50:45.359Z,1.27
2023-01-27T07:53:13.444Z,1.17
2023-01-27T07:55:41.456Z,1.35
2023-01-27T07:58:11.233Z,1.42
2023-01-27T08:00:39.498Z,1.48
2023-01-27T08:03:07.596Z,1.51
2023-01-27T08:05:38.506Z,1.40
2023-01-27T08:08:07.019Z,1.39
2023-01-27T08:10:34.981Z,1.28
2023-01-27T08:13:03.003Z,1.31
2023-01-27T08:15:32.396Z,1.39
2023-01-27T08:18:01.809Z,1.42
2023-01-27T08:20:30.666Z,1.45
2023-01-27T08:22:58.612Z,1.44
2023-01-27T08:25:26.925Z,1.49
2023-01-27T08:27:56.617Z,1.40
2023-01-27T08:30:25.087Z,1.40
2023-01-27T08:32:54.882Z,1.34
2023-01-27T08:35:22.932Z,1.28
2023-01-27T08:37:51.644Z,1.33
2023-01-27T08:40:19.938Z,1.29
2023-01-27T08:42:47.927Z,1.38
2023-01-27T08:45:15.956Z,1.42
2023-01-27T08:47:44.058Z,1.41
2023-01-27T08:50:14.066Z,1.48
2023-01-27T08:52:42.494Z,1.56
2023-01-27T08:55:10.620Z,1.47
2023-01-27T08:57:38.912Z,1.44
2023-01-27T09:00:08.690Z,1.33
2023-01-27T09:02:36.935Z,1.46
2023-01-27T09:05:05.155Z,1.54
2023-01-27T09:07:35.447Z,1.59
2023-01-27T09:10:14.035Z,1.53
2023-01-27T09:12:43.943Z,1.60
2023-01-27T09:15:13.422Z,1.54
2023-01-27T09:17:42.298Z,1.59
2023-01-27T09:20:12.115Z,1.64
2023-01-27T09:22:42.392Z,1.61
2023-01-27T09:25:15.059Z,1.69
2023-01-27T09:27:43.091Z,1.71
2023-01-27T09:30:13.512Z,1.80
2023-01-27T09:32:42.183Z,1.69
2023-01-27T09:35:11.477Z,1.72
2023-01-27T09:37:46.032Z,1.73
2023-01-27T09:40:24.518Z,1.57
2023-01-27T09:43:16.485Z,1.65
2023-01-27T09:46:08.562Z,1.59
2023-01-27T09:48:53.489Z,1.64
2023-01-27T09:51:29.746Z,1.74
2023-01-27T09:54:12.372Z,1.66
2023-01-27T09:56:47.852Z,1.58
2023-01-27T09:59:39.999Z,1.47
2023-01-27T10:02:21.310Z,1.61
2023-01-27T10:05:18.303Z,1.72
2023-01-27T10:08:02.276Z,1.43
2023-01-27T10:10:46.505Z,1.39
2023-01-27T10:13:28.855Z,1.47
2023-01-27T10:16:11.276Z,1.51
2023-01-27T10:18:55.777Z,1.36
2023-01-27T10:21:31.668Z,1.57
2023-01-27T10:24:08.428Z,1.48
2023-01-27T10:26:42.610Z,1.39
2023-01-27T10:29:13.065Z,1.43
2023-01-27T10:31:49.712Z,1.14
2023-01-27T10:34:25.394Z,1.31
2023-01-27T10:37:05.032Z,1.51
2023-01-27T10:39:44.240Z,1.71
2023-01-27T10:42:26.230Z,1.79
2023-01-27T10:45:12.037Z,1.86
2023-01-27T10:47:57.186Z,1.89
2023-01-27T10:50:30.754Z,1.89
2023-01-27T10:53:03.057Z,1.77
2023-01-27T10:55:39.093Z,1.80
2023-01-27T10:58:16.336Z,1.86
2023-01-27T11:01:18.093Z,1.93
2023-01-27T11:03:41.278Z,1.96
2023-01-27T11:06:15.519Z,1.71
2023-01-27T11:08:47.943Z,1.76
2023-01-27T11:11:36.204Z,1.67
2023-01-27T11:14:16.073Z,1.47
2023-01-27T11:16:47.732Z,1.56
2023-01-27T11:19:24.905Z,1.64
2023-01-27T11:22:06.543Z,1.70
2023-01-27T11:24:44.875Z,1.76
2023-01-27T11:27:21.029Z,1.92
2023-01-27T11:29:56.328Z,1.92
2023-01-27T11:32:34.835Z,1.76
2023-01-27T11:35:06.118Z,1.59
2023-01-27T11:37:38.483Z,1.59
2023-01-27T11:40:16.197Z,1.76
2023-01-27T11:42:44.829Z,1.86
2023-01-27T11:45:18.104Z,1.88
2023-01-27T11:47:48.358Z,2.03
2023-01-27T11:50:18.481Z,2.03
2023-01-27T11:52:50.697Z,2.18
2023-01-27T11:55:22.676Z,2.07
2023-01-27T11:57:53.917Z,1.89
2023-01-27T12:00:26.521Z,1.96
2023-01-27T12:03:02.260Z,1.94
2023-01-27T12:05:34.742Z,1.88
2023-01-27T12:08:04.654Z,1.93
2023-01-27T12:10:34.603Z,2.12
2023-01-27T12:13:09.752Z,2.24
2023-01-27T12:15:48.514Z,2.17
2023-01-27T12:18:17.255Z,2.14
2023-01-27T12:20:47.313Z,2.03
2023-01-27T12:23:23.324Z,2.03
2023-01-27T12:25:55.895Z,2.18
2023-01-27T12:28:31.069Z,2.21
2023-01-27T12:31:07.072Z,2.12
2023-01-27T12:33:37.546Z,2.08
2023-01-27T12:36:15.400Z,2.14
2023-01-27T12:38:49.894Z,2.17
2023-01-27T12:41:24.964Z,2.22
2023-01-27T12:43:55.841Z,2.35
2023-01-27T12:46:26.805Z,2.32
2023-01-27T12:49:02.660Z,2.24
2023-01-27T12:51:41.166Z,2.19
2023-01-27T12:54:22.925Z,2.24
2023-01-27T12:56:52.431Z,2.29
2023-01-27T12:59:22.426Z,2.34
2023-01-27T13:02:03.430Z,2.30
2023-01-27T13:04:31.809Z,2.27
2023-01-27T13:07:08.148Z,2.31
2023-01-27T13:09:39.757Z,2.34
2023-01-27T13:12:17.755Z,2.25
2023-01-27T13:14:45.837Z,2.12
2023-01-27T13:17:37.004Z,2.22
2023-01-27T13:20:15.004Z,2.28
2023-01-27T13:22:46.525Z,2.29
2023-01-27T13:25:20.335Z,2.33
2023-01-27T13:27:50.963Z,2.25
2023-01-27T13:30:28.206Z,2.11
2023-01-27T13:33:04.345Z,2.07
2023-01-27T13:35:38.218Z,1.99
2023-01-27T13:38:17.355Z,2.03
2023-01-27T13:40:47.731Z,1.90
2023-01-27T13:43:23.537Z,1.72
2023-01-27T13:45:55.718Z,1.75
2023-01-27T13:48:30.750Z,1.79
2023-01-27T13:51:07.867Z,1.88
2023-01-27T13:53:36.556Z,1.95
2023-01-27T13:56:18.073Z,1.98
2023-01-27T13:58:55.023Z,1.98
2023-01-27T14:01:27.194Z,2.03
2023-01-27T14:04:37.362Z,2.13
2023-01-27T14:07:19.414Z,2.20
2023-01-27T14:09:59.719Z,2.23
2023-01-27T14:12:42.542Z,2.22
2023-01-27T14:15:24.344Z,2.20
2023-01-27T14:17:58.479Z,2.25
2023-01-27T14:20:42.388Z,2.26
2023-01-27T14:23:23.568Z,2.27
2023-01-27T14:26:04.265Z,2.27
2023-01-27T14:28:41.924Z,2.23
2023-01-27T14:31:15.050Z,2.26
2023-01-27T14:33:54.828Z,2.25
2023-01-27T14:36:29.576Z,2.16
2023-01-27T14:39:04.608Z,2.21
2023-01-27T14:41:39.448Z,2.26
2023-01-27T14:44:17.100Z,2.27
2023-01-27T14:46:59.042Z,2.26
2023-01-27T14:49:42.053Z,2.26
2023-01-27T14:52:24.589Z,2.27
2023-01-27T14:55:25.941Z,2.17
2023-01-27T14:58:01.184Z,2.21
2023-01-27T15:00:42.657Z,2.17
2023-01-27T15:03:34.202Z,2.14
2023-01-27T15:06:07.151Z,2.17
2023-01-27T15:08:43.911Z,2.13
2023-01-27T15:11:40.080Z,2.15
2023-01-27T15:14:24.403Z,2.21
2023-01-27T15:17:12.201Z,2.08
2023-01-27T15:19:56.859Z,2.13
2023-01-27T15:22:56.436Z,2.14
2023-01-27T15:25:35.063Z,2.18
2023-01-27T15:28:04.519Z,2.07
2023-01-27T15:30:37.530Z,2.05
2023-01-27T15:33:44.488Z,2.18
2023-01-27T15:36:33.349Z,2.15
2023-01-27T15:39:26.001Z,1.90
2023-01-27T15:42:16.620Z,1.89
2023-01-27T15:45:00.896Z,1.90
2023-01-27T15:47:31.258Z,1.99
2023-01-27T15:50:15.534Z,2.03
2023-01-27T15:52:46.048Z,1.98
2023-01-27T15:55:27.304Z,1.87
2023-01-27T15:58:06.332Z,1.95
2023-01-27T16:00:38.017Z,1.99
2023-01-27T16:03:15.999Z,1.72
2023-01-27T16:05:47.072Z,1.73
2023-01-27T16:08:17.276Z,1.68
2023-01-27T16:10:45.582Z,1.55
2023-01-27T16:13:23.267Z,1.65
2023-01-27T16:15:51.625Z,1.67
2023-01-27T16:18:26.474Z,1.60
2023-01-27T16:21:02.453Z,1.69
2023-01-27T16:23:39.345Z,1.67
2023-01-27T16:26:30.464Z,1.76
2023-01-27T16:29:07.510Z,1.90
2023-01-27T16:31:38.042Z,1.98
2023-01-27T16:34:16.179Z,2.01
2023-01-27T16:36:44.283Z,1.94
2023-01-27T16:39:28.310Z,1.94
2023-01-27T16:41:59.545Z,2.01
2023-01-27T16:44:34.733Z,2.03
2023-01-27T16:47:16.446Z,2.06
2023-01-27T16:49:46.165Z,2.03
2023-01-27T16:52:21.251Z,2.03
2023-01-27T16:54:55.595Z,2.01
2023-01-27T16:57:34.516Z,2.03
2023-01-27T17:00:08.385Z,1.95
2023-01-27T17:02:37.076Z,1.48
2023-01-27T17:05:14.743Z,1.56
2023-01-27T17:07:48.145Z,1.60
2023-01-27T17:10:33.017Z,1.77
2023-01-27T17:13:02.177Z,1.77
2023-01-27T17:15:37.654Z,1.82
2023-01-27T17:18:10.292Z,1.84
2023-01-27T17:20:42.203Z,1.82
2023-01-27T17:23:23.334Z,1.90
2023-01-27T17:25:51.957Z,1.90
2023-01-27T17:28:26.546Z,1.93
2023-01-27T17:31:06.379Z,1.84
2023-01-27T17:33:36.992Z,1.69
2023-01-27T17:36:10.228Z,1.72
2023-01-27T17:38:46.431Z,1.73
2023-01-27T17:41:35.613Z,1.73
2023-01-27T17:44:05.340Z,1.80
2023-01-27T17:46:35.671Z,1.90
2023-01-27T17:49:07.019Z,1.97
2023-01-27T17:51:38.454Z,1.94
2023-01-27T17:54:20.575Z,1.84
2023-01-27T17:56:50.611Z,1.88
2023-01-27T17:59:22.208Z,1.92
2023-01-27T18:01:54.432Z,1.94
2023-01-27T18:04:23.786Z,1.95
2023-01-27T18:06:52.737Z,1.95
2023-01-27T18:09:25.203Z,1.97
2023-01-27T18:11:56.258Z,1.97
2023-01-27T18:14:24.894Z,1.98
2023-01-27T18:17:02.830Z,2.01
2023-01-27T18:19:30.941Z,1.84
2023-01-27T18:22:12.502Z,1.88
2023-01-27T18:24:41.449Z,1.89
2023-01-27T18:27:28.507Z,1.89
2023-01-27T18:30:02.664Z,1.91
2023-01-27T18:32:39.545Z,2.00
2023-01-27T18:35:26.584Z,1.89
2023-01-27T18:37:58.439Z,1.88
2023-01-27T18:40:30.797Z,1.70
2023-01-27T18:43:00.588Z,1.72
2023-01-27T18:45:29.196Z,1.81
2023-01-27T18:47:59.577Z,1.80
2023-01-27T18:50:29.013Z,1.83
2023-01-27T18:52:57.445Z,1.90
2023-01-27T18:55:26.936Z,1.96
2023-01-27T18:57:56.525Z,2.03
2023-01-27T19:00:26.081Z,2.00
2023-01-27T19:02:59.111Z,1.99
2023-01-27T19:05:30.478Z,2.03
2023-01-27T19:07:58.671Z,1.97
2023-01-27T19:10:29.466Z,1.98
2023-01-27T19:12:59.366Z,1.91
2023-01-27T19:15:29.405Z,1.92
2023-01-27T19:17:59.574Z,1.73
2023-01-27T19:20:31.150Z,1.64
2023-01-27T19:23:00.249Z,1.74
2023-01-27T19:25:31.336Z,1.84
2023-01-27T19:28:04.669Z,1.63
2023-01-27T19:30:36.205Z,1.78
2023-01-27T19:33:05.892Z,1.86
2023-01-27T19:35:36.667Z,1.87
2023-01-27T19:38:05.941Z,1.76
2023-01-27T19:40:34.435Z,1.81
2023-01-27T19:43:02.575Z,1.81
2023-01-27T19:45:30.556Z,1.87
2023-01-27T19:47:59.891Z,1.90
2023-01-27T19:50:30.714Z,1.93
2023-01-27T19:53:00.111Z,2.04
2023-01-27T19:55:28.184Z,2.00
2023-01-27T19:57:56.129Z,1.99
2023-01-27T20:00:26.874Z,1.97
2023-01-27T20:02:55.206Z,2.03
2023-01-27T20:05:24.107Z,2.01
2023-01-27T20:07:53.607Z,1.98
2023-01-27T20:10:25.686Z,1.96
2023-01-27T20:12:55.735Z,1.94
2023-01-27T20:15:24.532Z,1.96
2023-01-27T20:17:53.673Z,1.92
2023-01-27T20:20:22.633Z,1.97
2023-01-27T20:22:50.684Z,1.94
2023-01-27T20:25:20.871Z,1.96
2023-01-27T20:27:51.996Z,2.00
2023-01-27T20:30:20.964Z,2.01
2023-01-27T20:32:48.942Z,1.97
2023-01-27T20:35:18.826Z,1.98
2023-01-27T20:37:48.651Z,1.86
2023-01-27T20:40:18.550Z,1.88
2023-01-27T20:42:46.583Z,1.83
2023-01-27T20:45:16.575Z,1.77
2023-01-27T20:47:48.855Z,1.87
2023-01-27T20:50:17.411Z,1.91
2023-01-27T20:52:47.778Z,1.95
2023-01-27T20:55:16.750Z,2.01
2023-01-27T20:57:45.012Z,2.04
2023-01-27T21:00:19.346Z,2.04
2023-01-27T21:02:47.891Z,2.06
2023-01-27T21:05:16.478Z,2.03
2023-01-27T21:07:44.859Z,2.04
2023-01-27T21:10:13.334Z,2.06
2023-01-27T21:12:41.408Z,1.96
2023-01-27T21:15:11.019Z,1.96
2023-01-27T21:17:40.405Z,1.97
2023-01-27T21:20:10.002Z,1.94
2023-01-27T21:22:37.990Z,1.97
2023-01-27T21:25:06.671Z,1.91
2023-01-27T21:27:35.916Z,1.91
2023-01-27T21:30:03.936Z,1.93
2023-01-27T21:32:31.981Z,1.82
2023-01-27T21:35:01.386Z,1.80
2023-01-27T21:37:29.335Z,1.75
2023-01-27T21:39:57.331Z,1.80
2023-01-27T21:42:42.947Z,1.82
2023-01-27T21:45:15.317Z,1.74
2023-01-27T21:47:44.140Z,1.68
2023-01-27T21:50:14.951Z,1.76
2023-01-27T21:52:45.546Z,1.75
2023-01-27T21:55:16.411Z,1.84
2023-01-27T21:57:46.172Z,1.81
2023-01-27T22:00:16.615Z,1.88
2023-01-27T22:02:44.936Z,1.73
2023-01-27T22:05:14.611Z,1.73
2023-01-27T22:07:42.838Z,1.50
2023-01-27T22:10:15.794Z,1.43
2023-01-27T22:12:44.126Z,1.56
2023-01-27T22:15:14.385Z,1.36
2023-01-27T22:17:42.807Z,1.48
2023-01-27T22:20:15.563Z,1.56
2023-01-27T22:22:44.320Z,1.71
2023-01-27T22:25:15.411Z,1.66
2023-01-27T22:27:44.019Z,1.70
2023-01-27T22:30:14.468Z,1.71
2023-01-27T22:32:42.504Z,1.72
2023-01-27T22:35:11.969Z,1.73
2023-01-27T22:37:41.675Z,1.81
2023-01-27T22:40:11.340Z,1.88
2023-01-27T22:42:40.119Z,1.84
2023-01-27T22:45:09.987Z,1.87
2023-01-27T22:47:38.053Z,1.92
2023-01-27T22:50:06.614Z,1.81
2023-01-27T22:52:36.126Z,1.75
2023-01-27T22:55:05.765Z,1.74
2023-01-27T22:57:34.106Z,1.68
2023-01-27T23:00:02.364Z,1.70
2023-01-27T23:02:30.716Z,1.77
2023-01-27T23:04:58.871Z,1.70
2023-01-27T23:07:27.104Z,1.50
2023-01-27T23:09:55.104Z,1.44
2023-01-27T23:12:24.474Z,1.47
2023-01-27T23:14:52.440Z,1.18
2023-01-27T23:17:20.437Z,1.34
2023-01-27T23:19:48.400Z,1.41
2023-01-27T23:22:16.452Z,1.43
2023-01-27T23:24:44.453Z,1.27
2023-01-27T23:27:12.432Z,1.39
2023-01-27T23:29:41.864Z,1.51
2023-01-27T23:32:09.806Z,1.60
2023-01-27T23:34:37.796Z,1.62
2023-01-27T23:37:05.843Z,1.55
2023-01-27T23:39:33.834Z,1.48
2023-01-27T23:42:01.803Z,1.42
2023-01-27T23:44:29.783Z,1.36
2023-01-27T23:46:59.170Z,1.43
2023-01-27T23:49:27.115Z,1.51
2023-01-27T23:51:55.108Z,1.53
2023-01-27T23:54:23.065Z,1.53
2023-01-27T23:56:51.461Z,1.59
2023-01-27T23:59:19.474Z,1.54
